sensor_id;sensor_type;location;lat;lon;timestamp;temperature;humidity
23544;DHT22;11950;51.230;4.012;2022-12-16T00:02:20;0.90;99.90
23544;DHT22;11950;51.230;4.012;2022-12-16T00:04:46;0.80;99.90
23544;DHT22;11950;51.230;4.012;2022-12-16T00:07:12;0.80;99.90
23544;DHT22;11950;51.230;4.012;2022-12-16T00:09:38;0.80;99.90
23544;DHT22;11950;51.230;4.012;2022-12-16T00:12:05;0.80;99.90
23544;DHT22;11950;51.230;4.012;2022-12-16T00:14:31;0.80;99.90
23544;DHT22;11950;51.230;4.012;2022-12-16T00:16:57;0.80;99.90
23544;DHT22;11950;51.230;4.012;2022-12-16T00:19:24;0.70;99.90
23544;DHT22;11950;51.230;4.012;2022-12-16T00:21:50;0.70;99.90
23544;DHT22;11950;51.230;4.012;2022-12-16T00:24:16;0.60;99.90
23544;DHT22;11950;51.230;4.012;2022-12-16T00:26:42;0.60;99.90
23544;DHT22;11950;51.230;4.012;2022-12-16T00:29:09;0.90;99.90
23544;DHT22;11950;51.230;4.012;2022-12-16T00:31:36;0.70;99.90
23544;DHT22;11950;51.230;4.012;2022-12-16T00:34:02;0.60;99.90
23544;DHT22;11950;51.230;4.012;2022-12-16T00:36:29;0.60;99.90
23544;DHT22;11950;51.230;4.012;2022-12-16T00:38:55;0.60;99.90
23544;DHT22;11950;51.230;4.012;2022-12-16T00:41:21;0.60;99.90
23544;DHT22;11950;51.230;4.012;2022-12-16T00:43:47;0.70;99.90
23544;DHT22;11950;51.230;4.012;2022-12-16T00:46:14;0.70;99.90
23544;DHT22;11950;51.230;4.012;2022-12-16T00:48:40;0.60;99.90
23544;DHT22;11950;51.230;4.012;2022-12-16T00:51:06;0.60;99.90
23544;DHT22;11950;51.230;4.012;2022-12-16T00:53:33;0.60;99.90
23544;DHT22;11950;51.230;4.012;2022-12-16T00:56:06;0.60;99.90
23544;DHT22;11950;51.230;4.012;2022-12-16T00:58:33;0.60;99.90
23544;DHT22;11950;51.230;4.012;2022-12-16T01:01:00;0.60;99.90
23544;DHT22;11950;51.230;4.012;2022-12-16T01:03:26;0.50;99.90
23544;DHT22;11950;51.230;4.012;2022-12-16T01:05:53;0.60;99.90
23544;DHT22;11950;51.230;4.012;2022-12-16T01:08:19;0.60;99.90
23544;DHT22;11950;51.230;4.012;2022-12-16T01:10:53;0.60;99.90
23544;DHT22;11950;51.230;4.012;2022-12-16T01:13:20;0.60;99.90
23544;DHT22;11950;51.230;4.012;2022-12-16T01:15:47;0.50;99.90
23544;DHT22;11950;51.230;4.012;2022-12-16T01:18:15;0.50;99.90
23544;DHT22;11950;51.230;4.012;2022-12-16T01:20:41;1.00;99.90
23544;DHT22;11950;51.230;4.012;2022-12-16T01:23:08;0.60;99.90
23544;DHT22;11950;51.230;4.012;2022-12-16T01:25:34;0.60;99.90
23544;DHT22;11950;51.230;4.012;2022-12-16T01:28:00;0.70;99.90
23544;DHT22;11950;51.230;4.012;2022-12-16T01:30:27;0.80;99.90
23544;DHT22;11950;51.230;4.012;2022-12-16T01:32:53;1.00;99.90
23544;DHT22;11950;51.230;4.012;2022-12-16T01:35:19;1.10;99.90
23544;DHT22;11950;51.230;4.012;2022-12-16T01:37:46;1.20;99.90
23544;DHT22;11950;51.230;4.012;2022-12-16T01:40:20;1.30;99.90
23544;DHT22;11950;51.230;4.012;2022-12-16T01:42:47;1.40;99.90
23544;DHT22;11950;51.230;4.012;2022-12-16T01:45:31;1.40;99.90
23544;DHT22;11950;51.230;4.012;2022-12-16T01:48:06;1.50;99.90
23544;DHT22;11950;51.230;4.012;2022-12-16T01:50:36;1.60;99.90
23544;DHT22;11950;51.230;4.012;2022-12-16T01:53:03;1.60;99.90
23544;DHT22;11950;51.230;4.012;2022-12-16T01:55:38;1.80;99.90
23544;DHT22;11950;51.230;4.012;2022-12-16T01:58:14;1.90;99.90
23544;DHT22;11950;51.230;4.012;2022-12-16T02:00:43;2.00;99.90
23544;DHT22;11950;51.230;4.012;2022-12-16T02:03:09;2.10;99.90
23544;DHT22;11950;51.230;4.012;2022-12-16T02:05:39;2.20;99.90
23544;DHT22;11950;51.230;4.012;2022-12-16T02:08:15;2.20;99.90
23544;DHT22;11950;51.230;4.012;2022-12-16T02:31:51;2.70;99.90
23544;DHT22;11950;51.230;4.012;2022-12-16T02:34:58;2.70;99.90
23544;DHT22;11950;51.230;4.012;2022-12-16T02:40:15;2.80;99.90
23544;DHT22;11950;51.230;4.012;2022-12-16T02:42:53;2.80;99.90
23544;DHT22;11950;51.230;4.012;2022-12-16T02:45:24;2.90;99.90
23544;DHT22;11950;51.230;4.012;2022-12-16T02:47:52;2.90;99.90
23544;DHT22;11950;51.230;4.012;2022-12-16T02:50:22;2.90;99.90
23544;DHT22;11950;51.230;4.012;2022-12-16T02:52:52;2.90;99.90
23544;DHT22;11950;51.230;4.012;2022-12-16T02:55:19;2.90;99.90
23544;DHT22;11950;51.230;4.012;2022-12-16T02:58:09;2.80;99.90
23544;DHT22;11950;51.230;4.012;2022-12-16T03:01:08;2.80;99.90
23544;DHT22;11950;51.230;4.012;2022-12-16T03:06:05;2.80;99.90
23544;DHT22;11950;51.230;4.012;2022-12-16T03:08:36;2.80;99.90
23544;DHT22;11950;51.230;4.012;2022-12-16T03:11:04;2.80;99.90
23544;DHT22;11950;51.230;4.012;2022-12-16T03:13:37;2.70;99.90
23544;DHT22;11950;51.230;4.012;2022-12-16T03:16:06;2.80;99.90
23544;DHT22;11950;51.230;4.012;2022-12-16T03:18:36;2.70;99.90
23544;DHT22;11950;51.230;4.012;2022-12-16T03:21:08;2.70;99.90
23544;DHT22;11950;51.230;4.012;2022-12-16T03:23:47;2.70;99.90
23544;DHT22;11950;51.230;4.012;2022-12-16T03:26:26;2.70;99.90
23544;DHT22;11950;51.230;4.012;2022-12-16T03:28:59;2.70;99.90
23544;DHT22;11950;51.230;4.012;2022-12-16T03:34:35;2.70;99.90
23544;DHT22;11950;51.230;4.012;2022-12-16T03:37:05;2.70;99.90
23544;DHT22;11950;51.230;4.012;2022-12-16T03:39:35;2.70;99.90
23544;DHT22;11950;51.230;4.012;2022-12-16T03:42:03;2.70;99.90
23544;DHT22;11950;51.230;4.012;2022-12-16T03:44:29;2.70;99.90
23544;DHT22;11950;51.230;4.012;2022-12-16T03:46:57;2.70;99.90
23544;DHT22;11950;51.230;4.012;2022-12-16T03:49:23;2.60;99.90
23544;DHT22;11950;51.230;4.012;2022-12-16T03:51:49;2.60;99.90
23544;DHT22;11950;51.230;4.012;2022-12-16T03:54:17;2.60;99.90
23544;DHT22;11950;51.230;4.012;2022-12-16T03:56:44;2.50;99.90
23544;DHT22;11950;51.230;4.012;2022-12-16T03:59:10;2.60;99.90
23544;DHT22;11950;51.230;4.012;2022-12-16T04:01:36;2.50;99.90
23544;DHT22;11950;51.230;4.012;2022-12-16T04:04:03;2.50;99.90
23544;DHT22;11950;51.230;4.012;2022-12-16T04:06:29;2.40;99.90
23544;DHT22;11950;51.230;4.012;2022-12-16T04:08:55;2.40;99.90
23544;DHT22;11950;51.230;4.012;2022-12-16T04:11:22;2.30;99.90
23544;DHT22;11950;51.230;4.012;2022-12-16T04:14:08;2.30;99.90
23544;DHT22;11950;51.230;4.012;2022-12-16T04:16:53;2.20;99.90
23544;DHT22;11950;51.230;4.012;2022-12-16T04:19:38;2.20;99.90
23544;DHT22;11950;51.230;4.012;2022-12-16T04:22:25;2.10;99.90
23544;DHT22;11950;51.230;4.012;2022-12-16T04:25:32;2.10;99.90
23544;DHT22;11950;51.230;4.012;2022-12-16T04:28:00;2.10;99.90
23544;DHT22;11950;51.230;4.012;2022-12-16T04:30:28;2.00;99.90
23544;DHT22;11950;51.230;4.012;2022-12-16T04:33:04;2.00;99.90
23544;DHT22;11950;51.230;4.012;2022-12-16T04:35:50;2.00;99.90
23544;DHT22;11950;51.230;4.012;2022-12-16T04:38:35;1.90;99.90
23544;DHT22;11950;51.230;4.012;2022-12-16T04:41:20;1.90;99.90
23544;DHT22;11950;51.230;4.012;2022-12-16T04:44:05;1.90;99.90
23544;DHT22;11950;51.230;4.012;2022-12-16T04:46:49;1.90;99.90
23544;DHT22;11950;51.230;4.012;2022-12-16T04:49:34;1.90;99.90
23544;DHT22;11950;51.230;4.012;2022-12-16T04:52:20;2.00;99.90
23544;DHT22;11950;51.230;4.012;2022-12-16T04:55:05;1.90;99.90
23544;DHT22;11950;51.230;4.012;2022-12-16T04:57:52;2.00;99.90
23544;DHT22;11950;51.230;4.012;2022-12-16T05:00:38;2.00;99.90
23544;DHT22;11950;51.230;4.012;2022-12-16T05:03:23;1.90;99.90
23544;DHT22;11950;51.230;4.012;2022-12-16T05:06:08;2.00;99.90
23544;DHT22;11950;51.230;4.012;2022-12-16T05:08:53;2.00;99.90
23544;DHT22;11950;51.230;4.012;2022-12-16T05:11:38;2.00;99.90
23544;DHT22;11950;51.230;4.012;2022-12-16T05:14:23;2.00;99.90
23544;DHT22;11950;51.230;4.012;2022-12-16T05:17:08;2.10;99.90
23544;DHT22;11950;51.230;4.012;2022-12-16T05:19:53;2.00;99.90
23544;DHT22;11950;51.230;4.012;2022-12-16T05:22:38;2.00;99.90
23544;DHT22;11950;51.230;4.012;2022-12-16T05:25:23;1.90;99.90
23544;DHT22;11950;51.230;4.012;2022-12-16T05:28:08;1.70;99.90
23544;DHT22;11950;51.230;4.012;2022-12-16T05:30:53;1.70;99.90
23544;DHT22;11950;51.230;4.012;2022-12-16T05:33:38;1.60;99.90
23544;DHT22;11950;51.230;4.012;2022-12-16T05:36:22;1.50;99.90
23544;DHT22;11950;51.230;4.012;2022-12-16T05:39:08;1.30;99.90
23544;DHT22;11950;51.230;4.012;2022-12-16T05:41:53;1.20;99.90
23544;DHT22;11950;51.230;4.012;2022-12-16T05:44:38;1.20;99.90
23544;DHT22;11950;51.230;4.012;2022-12-16T05:47:23;1.30;99.90
23544;DHT22;11950;51.230;4.012;2022-12-16T05:50:08;1.20;99.90
23544;DHT22;11950;51.230;4.012;2022-12-16T05:52:58;1.20;99.90
23544;DHT22;11950;51.230;4.012;2022-12-16T05:55:43;1.20;99.90
23544;DHT22;11950;51.230;4.012;2022-12-16T05:58:28;1.10;99.90
23544;DHT22;11950;51.230;4.012;2022-12-16T06:01:13;1.10;99.90
23544;DHT22;11950;51.230;4.012;2022-12-16T06:03:58;1.10;99.90
23544;DHT22;11950;51.230;4.012;2022-12-16T06:06:43;1.10;99.90
23544;DHT22;11950;51.230;4.012;2022-12-16T06:09:28;1.30;99.90
23544;DHT22;11950;51.230;4.012;2022-12-16T06:12:13;1.00;99.90
23544;DHT22;11950;51.230;4.012;2022-12-16T06:14:58;0.90;99.90
23544;DHT22;11950;51.230;4.012;2022-12-16T06:17:47;0.80;99.90
23544;DHT22;11950;51.230;4.012;2022-12-16T06:20:32;0.80;99.90
23544;DHT22;11950;51.230;4.012;2022-12-16T06:23:17;0.60;99.90
23544;DHT22;11950;51.230;4.012;2022-12-16T06:26:02;0.50;99.90
23544;DHT22;11950;51.230;4.012;2022-12-16T06:28:47;0.50;99.90
23544;DHT22;11950;51.230;4.012;2022-12-16T06:31:32;0.50;99.90
23544;DHT22;11950;51.230;4.012;2022-12-16T06:34:17;0.50;99.90
23544;DHT22;11950;51.230;4.012;2022-12-16T06:37:02;0.50;99.90
23544;DHT22;11950;51.230;4.012;2022-12-16T06:39:46;0.60;99.90
23544;DHT22;11950;51.230;4.012;2022-12-16T06:42:31;0.60;99.90
23544;DHT22;11950;51.230;4.012;2022-12-16T06:45:16;0.70;99.90
23544;DHT22;11950;51.230;4.012;2022-12-16T06:48:01;0.70;99.90
23544;DHT22;11950;51.230;4.012;2022-12-16T06:50:46;0.70;99.90
23544;DHT22;11950;51.230;4.012;2022-12-16T06:53:31;0.60;99.90
23544;DHT22;11950;51.230;4.012;2022-12-16T06:56:16;0.60;99.90
23544;DHT22;11950;51.230;4.012;2022-12-16T06:59:01;0.50;99.90
23544;DHT22;11950;51.230;4.012;2022-12-16T07:01:46;0.40;99.90
23544;DHT22;11950;51.230;4.012;2022-12-16T07:04:30;0.30;99.90
23544;DHT22;11950;51.230;4.012;2022-12-16T07:07:15;0.30;99.90
23544;DHT22;11950;51.230;4.012;2022-12-16T07:10:00;0.30;99.90
23544;DHT22;11950;51.230;4.012;2022-12-16T07:12:45;0.30;99.90
23544;DHT22;11950;51.230;4.012;2022-12-16T07:15:29;0.30;99.90
23544;DHT22;11950;51.230;4.012;2022-12-16T07:18:14;0.30;99.90
23544;DHT22;11950;51.230;4.012;2022-12-16T07:20:59;0.20;99.90
23544;DHT22;11950;51.230;4.012;2022-12-16T07:23:44;0.10;99.90
23544;DHT22;11950;51.230;4.012;2022-12-16T07:26:29;0.20;99.90
23544;DHT22;11950;51.230;4.012;2022-12-16T07:29:13;0.10;99.90
23544;DHT22;11950;51.230;4.012;2022-12-16T07:31:58;0.10;99.90
23544;DHT22;11950;51.230;4.012;2022-12-16T07:34:43;0.00;99.90
23544;DHT22;11950;51.230;4.012;2022-12-16T07:37:28;0.10;99.90
23544;DHT22;11950;51.230;4.012;2022-12-16T07:40:13;0.00;99.90
23544;DHT22;11950;51.230;4.012;2022-12-16T07:42:57;0.00;99.90
23544;DHT22;11950;51.230;4.012;2022-12-16T07:45:42;-0.10;99.90
23544;DHT22;11950;51.230;4.012;2022-12-16T07:48:27;-0.20;99.90
23544;DHT22;11950;51.230;4.012;2022-12-16T07:51:12;-0.20;99.90
23544;DHT22;11950;51.230;4.012;2022-12-16T07:53:57;-0.20;99.90
23544;DHT22;11950;51.230;4.012;2022-12-16T07:56:41;-0.40;99.90
23544;DHT22;11950;51.230;4.012;2022-12-16T07:59:26;0.10;99.90
23544;DHT22;11950;51.230;4.012;2022-12-16T08:02:11;-0.20;99.90
23544;DHT22;11950;51.230;4.012;2022-12-16T08:04:56;-0.20;99.90
23544;DHT22;11950;51.230;4.012;2022-12-16T08:07:41;-0.30;99.90
23544;DHT22;11950;51.230;4.012;2022-12-16T08:10:26;-0.30;99.90
23544;DHT22;11950;51.230;4.012;2022-12-16T08:13:11;-0.30;99.90
23544;DHT22;11950;51.230;4.012;2022-12-16T08:15:56;-0.30;99.90
23544;DHT22;11950;51.230;4.012;2022-12-16T08:18:41;-0.30;99.90
23544;DHT22;11950;51.230;4.012;2022-12-16T08:21:26;-0.20;99.90
23544;DHT22;11950;51.230;4.012;2022-12-16T08:24:10;-0.20;99.90
23544;DHT22;11950;51.230;4.012;2022-12-16T08:26:55;-0.20;99.90
23544;DHT22;11950;51.230;4.012;2022-12-16T08:29:40;-0.10;99.90
23544;DHT22;11950;51.230;4.012;2022-12-16T08:32:25;0.00;99.90
23544;DHT22;11950;51.230;4.012;2022-12-16T08:35:10;0.00;99.90
23544;DHT22;11950;51.230;4.012;2022-12-16T08:37:56;0.10;99.90
23544;DHT22;11950;51.230;4.012;2022-12-16T08:40:42;0.10;99.90
23544;DHT22;11950;51.230;4.012;2022-12-16T08:43:30;0.10;99.90
23544;DHT22;11950;51.230;4.012;2022-12-16T08:46:16;0.30;99.90
23544;DHT22;11950;51.230;4.012;2022-12-16T08:49:01;0.20;99.90
23544;DHT22;11950;51.230;4.012;2022-12-16T08:51:46;0.70;99.90
23544;DHT22;11950;51.230;4.012;2022-12-16T08:54:31;0.30;99.90
23544;DHT22;11950;51.230;4.012;2022-12-16T08:57:16;0.30;99.90
23544;DHT22;11950;51.230;4.012;2022-12-16T09:00:02;0.30;99.90
23544;DHT22;11950;51.230;4.012;2022-12-16T09:02:47;0.50;99.90
23544;DHT22;11950;51.230;4.012;2022-12-16T09:05:35;0.50;99.90
23544;DHT22;11950;51.230;4.012;2022-12-16T09:08:20;0.50;99.90
23544;DHT22;11950;51.230;4.012;2022-12-16T09:11:04;0.60;99.90
23544;DHT22;11950;51.230;4.012;2022-12-16T09:13:49;0.60;99.90
23544;DHT22;11950;51.230;4.012;2022-12-16T09:16:35;0.60;99.90
23544;DHT22;11950;51.230;4.012;2022-12-16T09:19:20;0.60;99.90
23544;DHT22;11950;51.230;4.012;2022-12-16T09:22:04;0.80;99.90
23544;DHT22;11950;51.230;4.012;2022-12-16T09:24:52;0.80;99.90
23544;DHT22;11950;51.230;4.012;2022-12-16T09:27:37;0.80;99.90
23544;DHT22;11950;51.230;4.012;2022-12-16T09:30:22;0.80;99.90
23544;DHT22;11950;51.230;4.012;2022-12-16T09:33:07;0.80;99.90
23544;DHT22;11950;51.230;4.012;2022-12-16T09:35:52;0.90;99.90
23544;DHT22;11950;51.230;4.012;2022-12-16T09:38:37;1.00;99.90
23544;DHT22;11950;51.230;4.012;2022-12-16T09:41:44;1.10;99.90
23544;DHT22;11950;51.230;4.012;2022-12-16T09:47:29;1.20;99.90
23544;DHT22;11950;51.230;4.012;2022-12-16T09:50:26;1.30;99.90
23544;DHT22;11950;51.230;4.012;2022-12-16T09:53:14;1.30;99.90
23544;DHT22;11950;51.230;4.012;2022-12-16T09:56:00;1.40;99.90
23544;DHT22;11950;51.230;4.012;2022-12-16T09:58:52;1.50;99.90
23544;DHT22;11950;51.230;4.012;2022-12-16T10:01:38;1.50;99.90
23544;DHT22;11950;51.230;4.012;2022-12-16T10:04:23;1.60;99.90
23544;DHT22;11950;51.230;4.012;2022-12-16T10:07:19;1.70;99.90
23544;DHT22;11950;51.230;4.012;2022-12-16T10:11:10;1.80;99.90
23544;DHT22;11950;51.230;4.012;2022-12-16T10:13:39;1.90;99.90
23544;DHT22;11950;51.230;4.012;2022-12-16T10:19:40;2.00;99.90
23544;DHT22;11950;51.230;4.012;2022-12-16T10:22:45;2.10;99.90
23544;DHT22;11950;51.230;4.012;2022-12-16T10:25:38;2.20;99.90
23544;DHT22;11950;51.230;4.012;2022-12-16T10:28:45;2.30;99.90
23544;DHT22;11950;51.230;4.012;2022-12-16T10:31:31;2.40;99.90
23544;DHT22;11950;51.230;4.012;2022-12-16T10:34:26;2.50;99.90
23544;DHT22;11950;51.230;4.012;2022-12-16T10:37:17;2.60;99.90
23544;DHT22;11950;51.230;4.012;2022-12-16T10:40:05;2.70;99.90
23544;DHT22;11950;51.230;4.012;2022-12-16T10:43:01;2.80;99.90
23544;DHT22;11950;51.230;4.012;2022-12-16T10:45:49;2.90;99.90
23544;DHT22;11950;51.230;4.012;2022-12-16T10:48:35;3.00;99.90
23544;DHT22;11950;51.230;4.012;2022-12-16T10:51:22;3.00;99.90
23544;DHT22;11950;51.230;4.012;2022-12-16T11:00:44;3.30;99.90
23544;DHT22;11950;51.230;4.012;2022-12-16T11:03:32;3.30;99.90
23544;DHT22;11950;51.230;4.012;2022-12-16T11:06:38;3.40;99.90
23544;DHT22;11950;51.230;4.012;2022-12-16T11:09:30;3.40;99.90
23544;DHT22;11950;51.230;4.012;2022-12-16T11:12:25;3.50;99.90
23544;DHT22;11950;51.230;4.012;2022-12-16T11:18:12;3.70;99.90
23544;DHT22;11950;51.230;4.012;2022-12-16T11:21:11;3.70;99.90
23544;DHT22;11950;51.230;4.012;2022-12-16T11:24:16;3.70;99.90
23544;DHT22;11950;51.230;4.012;2022-12-16T11:27:12;3.70;99.90
23544;DHT22;11950;51.230;4.012;2022-12-16T11:30:10;3.70;99.90
23544;DHT22;11950;51.230;4.012;2022-12-16T11:32:59;3.70;99.90
23544;DHT22;11950;51.230;4.012;2022-12-16T11:35:53;3.80;99.90
23544;DHT22;11950;51.230;4.012;2022-12-16T11:38:45;3.90;99.90
23544;DHT22;11950;51.230;4.012;2022-12-16T11:41:35;4.00;99.90
23544;DHT22;11950;51.230;4.012;2022-12-16T11:44:27;4.10;99.90
23544;DHT22;11950;51.230;4.012;2022-12-16T11:47:40;4.10;99.90
23544;DHT22;11950;51.230;4.012;2022-12-16T11:50:28;4.10;99.90
23544;DHT22;11950;51.230;4.012;2022-12-16T11:53:36;4.20;99.90
23544;DHT22;11950;51.230;4.012;2022-12-16T11:56:25;4.20;99.90
23544;DHT22;11950;51.230;4.012;2022-12-16T12:11:59;4.20;99.90
23544;DHT22;11950;51.230;4.012;2022-12-16T12:22:08;4.40;99.90
23544;DHT22;11950;51.230;4.012;2022-12-16T12:37:08;4.60;99.90
23544;DHT22;11950;51.230;4.012;2022-12-16T12:46:31;4.80;99.90
23544;DHT22;11950;51.230;4.012;2022-12-16T12:55:21;4.80;99.90
23544;DHT22;11950;51.230;4.012;2022-12-16T12:58:09;4.80;99.90
23544;DHT22;11950;51.230;4.012;2022-12-16T13:00:56;4.80;99.90
23544;DHT22;11950;51.230;4.012;2022-12-16T13:03:59;4.80;99.90
23544;DHT22;11950;51.230;4.012;2022-12-16T13:06:45;4.80;99.90
23544;DHT22;11950;51.230;4.012;2022-12-16T13:09:38;4.80;99.90
23544;DHT22;11950;51.230;4.012;2022-12-16T13:12:29;4.90;99.90
23544;DHT22;11950;51.230;4.012;2022-12-16T13:15:34;4.80;99.90
23544;DHT22;11950;51.230;4.012;2022-12-16T13:18:39;4.90;99.90
23544;DHT22;11950;51.230;4.012;2022-12-16T13:24:36;4.90;99.90
23544;DHT22;11950;51.230;4.012;2022-12-16T13:27:22;5.00;99.90
23544;DHT22;11950;51.230;4.012;2022-12-16T13:30:40;5.00;99.90
23544;DHT22;11950;51.230;4.012;2022-12-16T13:33:42;5.00;99.90
23544;DHT22;11950;51.230;4.012;2022-12-16T13:36:34;5.00;99.90
23544;DHT22;11950;51.230;4.012;2022-12-16T13:42:03;5.00;99.90
23544;DHT22;11950;51.230;4.012;2022-12-16T13:50:39;5.00;99.90
23544;DHT22;11950;51.230;4.012;2022-12-16T13:53:37;5.10;99.90
23544;DHT22;11950;51.230;4.012;2022-12-16T13:56:29;5.10;99.90
23544;DHT22;11950;51.230;4.012;2022-12-16T13:59:20;5.10;99.90
23544;DHT22;11950;51.230;4.012;2022-12-16T14:02:35;5.10;99.90
23544;DHT22;11950;51.230;4.012;2022-12-16T14:05:26;5.00;99.90
23544;DHT22;11950;51.230;4.012;2022-12-16T14:08:20;5.00;99.90
23544;DHT22;11950;51.230;4.012;2022-12-16T14:11:29;5.10;99.90
23544;DHT22;11950;51.230;4.012;2022-12-16T14:14:26;5.10;99.90
23544;DHT22;11950;51.230;4.012;2022-12-16T14:17:24;5.10;99.90
23544;DHT22;11950;51.230;4.012;2022-12-16T14:20:29;5.20;99.90
23544;DHT22;11950;51.230;4.012;2022-12-16T14:23:26;5.20;99.90
23544;DHT22;11950;51.230;4.012;2022-12-16T14:26:14;5.20;99.90
23544;DHT22;11950;51.230;4.012;2022-12-16T14:29:00;5.30;99.90
23544;DHT22;11950;51.230;4.012;2022-12-16T14:31:45;5.30;99.90
23544;DHT22;11950;51.230;4.012;2022-12-16T14:34:35;5.30;99.90
23544;DHT22;11950;51.230;4.012;2022-12-16T14:40:30;5.30;99.90
23544;DHT22;11950;51.230;4.012;2022-12-16T14:43:23;5.40;99.90
23544;DHT22;11950;51.230;4.012;2022-12-16T14:49:22;5.40;99.90
23544;DHT22;11950;51.230;4.012;2022-12-16T14:52:25;5.30;99.90
23544;DHT22;11950;51.230;4.012;2022-12-16T14:55:31;5.10;99.90
23544;DHT22;11950;51.230;4.012;2022-12-16T14:58:22;5.00;99.90
23544;DHT22;11950;51.230;4.012;2022-12-16T15:01:14;4.90;99.90
23544;DHT22;11950;51.230;4.012;2022-12-16T15:04:03;4.90;99.90
23544;DHT22;11950;51.230;4.012;2022-12-16T15:06:52;4.80;99.90
23544;DHT22;11950;51.230;4.012;2022-12-16T15:09:46;4.80;99.90
23544;DHT22;11950;51.230;4.012;2022-12-16T15:12:36;4.70;99.90
23544;DHT22;11950;51.230;4.012;2022-12-16T15:15:37;4.50;99.90
23544;DHT22;11950;51.230;4.012;2022-12-16T15:18:37;4.40;99.90
23544;DHT22;11950;51.230;4.012;2022-12-16T15:21:22;4.30;99.90
23544;DHT22;11950;51.230;4.012;2022-12-16T15:24:15;4.20;99.90
23544;DHT22;11950;51.230;4.012;2022-12-16T15:33:19;3.90;99.90
23544;DHT22;11950;51.230;4.012;2022-12-16T15:36:05;3.70;99.90
23544;DHT22;11950;51.230;4.012;2022-12-16T15:38:54;3.70;99.90
23544;DHT22;11950;51.230;4.012;2022-12-16T15:41:45;3.70;99.90
23544;DHT22;11950;51.230;4.012;2022-12-16T15:44:30;3.60;99.90
23544;DHT22;11950;51.230;4.012;2022-12-16T15:47:31;3.50;99.90
23544;DHT22;11950;51.230;4.012;2022-12-16T15:50:26;3.60;99.90
23544;DHT22;11950;51.230;4.012;2022-12-16T15:56:24;3.40;99.90
23544;DHT22;11950;51.230;4.012;2022-12-16T16:02:23;3.40;99.90
23544;DHT22;11950;51.230;4.012;2022-12-16T16:05:13;3.20;99.90
23544;DHT22;11950;51.230;4.012;2022-12-16T16:07:58;3.10;99.90
23544;DHT22;11950;51.230;4.012;2022-12-16T16:10:44;3.00;99.90
23544;DHT22;11950;51.230;4.012;2022-12-16T16:13:29;3.00;99.90
23544;DHT22;11950;51.230;4.012;2022-12-16T16:16:15;2.90;99.90
23544;DHT22;11950;51.230;4.012;2022-12-16T16:19:00;2.80;99.90
23544;DHT22;11950;51.230;4.012;2022-12-16T16:21:45;2.80;99.90
23544;DHT22;11950;51.230;4.012;2022-12-16T16:24:30;2.70;99.90
23544;DHT22;11950;51.230;4.012;2022-12-16T16:27:16;2.70;99.90
23544;DHT22;11950;51.230;4.012;2022-12-16T16:30:02;2.70;99.90
23544;DHT22;11950;51.230;4.012;2022-12-16T16:32:47;2.80;99.90
23544;DHT22;11950;51.230;4.012;2022-12-16T16:35:33;2.70;99.90
23544;DHT22;11950;51.230;4.012;2022-12-16T16:38:18;2.60;99.90
23544;DHT22;11950;51.230;4.012;2022-12-16T16:41:03;2.60;99.90
23544;DHT22;11950;51.230;4.012;2022-12-16T16:43:47;2.60;99.90
23544;DHT22;11950;51.230;4.012;2022-12-16T16:46:41;2.40;99.90
23544;DHT22;11950;51.230;4.012;2022-12-16T16:49:45;2.40;99.90
23544;DHT22;11950;51.230;4.012;2022-12-16T16:52:31;2.40;99.90
23544;DHT22;11950;51.230;4.012;2022-12-16T16:55:21;2.40;99.90
23544;DHT22;11950;51.230;4.012;2022-12-16T16:58:11;2.40;99.90
23544;DHT22;11950;51.230;4.012;2022-12-16T17:00:57;2.40;99.90
23544;DHT22;11950;51.230;4.012;2022-12-16T17:03:41;2.30;99.90
23544;DHT22;11950;51.230;4.012;2022-12-16T17:06:27;2.20;99.90
23544;DHT22;11950;51.230;4.012;2022-12-16T17:09:11;2.20;99.90
23544;DHT22;11950;51.230;4.012;2022-12-16T17:11:56;2.00;99.90
23544;DHT22;11950;51.230;4.012;2022-12-16T17:14:41;1.90;99.90
23544;DHT22;11950;51.230;4.012;2022-12-16T17:17:26;1.90;99.90
23544;DHT22;11950;51.230;4.012;2022-12-16T17:20:15;2.00;99.90
23544;DHT22;11950;51.230;4.012;2022-12-16T17:23:01;2.00;99.90
23544;DHT22;11950;51.230;4.012;2022-12-16T17:25:45;1.90;99.90
23544;DHT22;11950;51.230;4.012;2022-12-16T17:28:31;2.00;99.90
23544;DHT22;11950;51.230;4.012;2022-12-16T17:31:15;2.30;99.90
23544;DHT22;11950;51.230;4.012;2022-12-16T17:34:00;1.90;99.90
23544;DHT22;11950;51.230;4.012;2022-12-16T17:36:45;2.00;99.90
23544;DHT22;11950;51.230;4.012;2022-12-16T17:39:29;1.80;99.90
23544;DHT22;11950;51.230;4.012;2022-12-16T17:42:14;1.70;99.90
23544;DHT22;11950;51.230;4.012;2022-12-16T17:44:59;1.50;99.90
23544;DHT22;11950;51.230;4.012;2022-12-16T17:47:44;1.50;99.90
23544;DHT22;11950;51.230;4.012;2022-12-16T17:50:29;1.50;99.90
23544;DHT22;11950;51.230;4.012;2022-12-16T17:53:14;1.40;99.90
23544;DHT22;11950;51.230;4.012;2022-12-16T17:56:04;1.40;99.90
23544;DHT22;11950;51.230;4.012;2022-12-16T17:58:50;1.40;99.90
23544;DHT22;11950;51.230;4.012;2022-12-16T18:01:35;1.40;99.90
23544;DHT22;11950;51.230;4.012;2022-12-16T18:04:20;1.50;99.90
23544;DHT22;11950;51.230;4.012;2022-12-16T18:07:05;1.50;99.90
23544;DHT22;11950;51.230;4.012;2022-12-16T18:09:50;1.50;99.90
23544;DHT22;11950;51.230;4.012;2022-12-16T18:12:35;1.50;99.90
23544;DHT22;11950;51.230;4.012;2022-12-16T18:15:20;1.50;99.90
23544;DHT22;11950;51.230;4.012;2022-12-16T18:18:04;1.40;99.90
23544;DHT22;11950;51.230;4.012;2022-12-16T18:20:49;1.30;99.90
23544;DHT22;11950;51.230;4.012;2022-12-16T18:23:47;1.20;99.90
23544;DHT22;11950;51.230;4.012;2022-12-16T18:26:32;1.20;99.90
23544;DHT22;11950;51.230;4.012;2022-12-16T18:29:17;1.10;99.90
23544;DHT22;11950;51.230;4.012;2022-12-16T18:32:02;1.10;99.90
23544;DHT22;11950;51.230;4.012;2022-12-16T18:34:46;1.00;99.90
23544;DHT22;11950;51.230;4.012;2022-12-16T18:37:32;0.90;99.90
23544;DHT22;11950;51.230;4.012;2022-12-16T18:40:16;0.90;99.90
23544;DHT22;11950;51.230;4.012;2022-12-16T18:43:01;0.90;99.90
23544;DHT22;11950;51.230;4.012;2022-12-16T18:45:55;1.80;99.90
23544;DHT22;11950;51.230;4.012;2022-12-16T18:48:59;1.70;99.90
23544;DHT22;11950;51.230;4.012;2022-12-16T18:51:44;0.60;99.90
23544;DHT22;11950;51.230;4.012;2022-12-16T18:54:29;0.70;99.90
23544;DHT22;11950;51.230;4.012;2022-12-16T18:57:14;0.60;99.90
23544;DHT22;11950;51.230;4.012;2022-12-16T18:59:59;0.70;99.90
23544;DHT22;11950;51.230;4.012;2022-12-16T19:02:44;0.80;99.90
23544;DHT22;11950;51.230;4.012;2022-12-16T19:05:29;0.70;99.90
23544;DHT22;11950;51.230;4.012;2022-12-16T19:08:14;0.60;99.90
23544;DHT22;11950;51.230;4.012;2022-12-16T19:10:58;0.50;99.90
23544;DHT22;11950;51.230;4.012;2022-12-16T19:13:43;0.50;99.90
23544;DHT22;11950;51.230;4.012;2022-12-16T19:16:28;0.50;99.90
23544;DHT22;11950;51.230;4.012;2022-12-16T19:19:13;0.50;99.90
23544;DHT22;11950;51.230;4.012;2022-12-16T19:21:58;0.50;99.90
23544;DHT22;11950;51.230;4.012;2022-12-16T19:24:43;0.50;99.90
23544;DHT22;11950;51.230;4.012;2022-12-16T19:27:28;0.50;99.90
23544;DHT22;11950;51.230;4.012;2022-12-16T19:30:13;0.50;99.90
23544;DHT22;11950;51.230;4.012;2022-12-16T19:32:57;0.50;99.90